createdAt,value
2019-05-06T00:00:59.344Z,10.72
2019-05-06T00:03:26.639Z,10.85
2019-05-06T00:05:55.102Z,11.83
2019-05-06T00:08:23.762Z,11.08
2019-05-06T00:10:54.107Z,8.53
2019-05-06T00:13:24.162Z,7.60
2019-05-06T00:15:54.354Z,8.48
2019-05-06T00:18:24.520Z,8.58
2019-05-06T00:20:54.818Z,7.37
2019-05-06T00:23:25.299Z,7.75
2019-05-06T00:25:55.528Z,7.45
2019-05-06T00:28:37.901Z,7.03
2019-05-06T00:31:14.015Z,7.45
2019-05-06T00:33:40.822Z,7.67
2019-05-06T00:36:09.104Z,7.72
2019-05-06T00:38:39.490Z,7.10
2019-05-06T00:41:27.863Z,6.60
2019-05-06T00:43:56.686Z,6.70
2019-05-06T00:46:25.338Z,6.62
2019-05-06T00:48:54.264Z,6.03
2019-05-06T00:51:24.217Z,6.58
2019-05-06T00:54:00.319Z,5.75
2019-05-06T00:56:28.934Z,6.30
2019-05-06T00:58:57.573Z,7.05
2019-05-06T01:01:29.617Z,6.10
2019-05-06T01:03:56.113Z,6.45
2019-05-06T01:06:24.714Z,6.72
2019-05-06T01:08:54.387Z,6.50
2019-05-06T01:11:24.081Z,6.92
2019-05-06T01:14:00.126Z,6.55
2019-05-06T01:16:29.232Z,6.85
2019-05-06T01:18:57.862Z,6.97
2019-05-06T01:21:26.309Z,6.85
2019-05-06T01:23:54.851Z,6.70
2019-05-06T01:26:24.236Z,6.55
2019-05-06T01:28:54.540Z,6.25
2019-05-06T01:31:24.857Z,7.12
2019-05-06T01:33:53.829Z,6.78
2019-05-06T01:36:24.784Z,7.22
2019-05-06T01:39:00.322Z,7.75
2019-05-06T01:41:46.827Z,7.20
2019-05-06T01:44:15.284Z,7.28
2019-05-06T01:46:44.711Z,8.18
2019-05-06T01:49:13.751Z,7.47
2019-05-06T01:51:43.786Z,8.23
2019-05-06T01:54:14.137Z,7.70
2019-05-06T01:56:44.426Z,8.30
2019-05-06T01:59:13.998Z,8.50
2019-05-06T02:01:54.788Z,9.05
2019-05-06T02:04:13.851Z,8.70
2019-05-06T02:06:43.757Z,10.30
2019-05-06T02:11:44.186Z,9.33
2019-05-06T02:14:14.004Z,10.15
2019-05-06T02:16:43.666Z,9.90
2019-05-06T02:19:12.126Z,9.68
2019-05-06T02:21:43.843Z,11.18
2019-05-06T02:24:13.932Z,10.15
2019-05-06T02:29:15.103Z,9.98
2019-05-06T02:31:51.421Z,10.80
2019-05-06T02:34:25.376Z,10.20
2019-05-06T02:36:55.669Z,8.63
2019-05-06T02:39:24.117Z,9.05
2019-05-06T02:41:54.922Z,9.95
2019-05-06T02:44:23.908Z,9.58
2019-05-06T02:46:54.389Z,8.73
2019-05-06T02:49:24.779Z,10.15
2019-05-06T02:51:54.570Z,8.83
2019-05-06T02:54:23.701Z,9.38
2019-05-06T02:56:53.314Z,9.50
2019-05-06T02:59:24.122Z,9.08
2019-05-06T03:01:53.772Z,9.03
2019-05-06T03:04:23.660Z,9.85
2019-05-06T03:06:53.296Z,8.50
2019-05-06T03:09:23.347Z,9.35
2019-05-06T03:11:54.017Z,9.58
2019-05-06T03:14:23.343Z,9.68
2019-05-06T03:19:24.020Z,8.38
2019-05-06T03:24:25.066Z,10.32
2019-05-06T03:26:57.057Z,11.08
2019-05-06T03:29:25.450Z,11.75
2019-05-06T03:31:56.464Z,11.45
2019-05-06T03:34:49.368Z,10.80
2019-05-06T03:36:56.485Z,10.93
2019-05-06T03:39:24.693Z,11.73
2019-05-06T03:41:53.784Z,11.03
2019-05-06T03:44:23.911Z,12.93
2019-05-06T03:47:13.874Z,12.43
2019-05-06T03:49:50.275Z,12.75
2019-05-06T03:52:22.921Z,11.97
2019-05-06T03:54:52.985Z,10.43
2019-05-06T03:57:23.137Z,10.48
2019-05-06T03:59:52.949Z,9.33
2019-05-06T04:02:23.790Z,9.20
2019-05-06T04:04:55.744Z,8.40
2019-05-06T04:07:23.395Z,8.33
2019-05-06T04:09:53.677Z,7.87
2019-05-06T04:12:23.502Z,8.53
2019-05-06T04:14:54.030Z,7.58
2019-05-06T04:17:25.448Z,6.60
2019-05-06T04:19:58.219Z,6.37
2019-05-06T04:22:34.537Z,6.87
2019-05-06T04:25:10.024Z,5.08
2019-05-06T04:27:42.784Z,5.22
2019-05-06T04:30:13.637Z,4.95
2019-05-06T04:32:44.086Z,4.85
2019-05-06T04:35:13.458Z,5.67
2019-05-06T04:37:44.526Z,4.67
2019-05-06T04:40:13.201Z,4.12
2019-05-06T04:42:44.462Z,4.08
2019-05-06T04:45:13.456Z,3.80
2019-05-06T04:47:44.638Z,4.20
2019-05-06T04:50:16.332Z,4.10
2019-05-06T04:52:44.904Z,4.35
2019-05-06T04:55:19.134Z,4.58
2019-05-06T04:57:47.817Z,3.45
2019-05-06T05:00:19.237Z,3.80
2019-05-06T05:02:49.354Z,3.10
2019-05-06T05:05:18.313Z,3.10
2019-05-06T05:07:46.639Z,3.15
2019-05-06T05:10:19.648Z,2.62
2019-05-06T05:13:03.572Z,3.22
2019-05-06T05:15:33.903Z,2.60
2019-05-06T05:18:23.604Z,3.50
2019-05-06T05:20:52.978Z,2.85
2019-05-06T05:23:22.907Z,2.90
2019-05-06T05:25:52.312Z,3.52
2019-05-06T05:28:22.300Z,2.62
2019-05-06T05:30:54.062Z,3.00
2019-05-06T05:33:22.630Z,2.92
2019-05-06T05:35:52.576Z,3.37
2019-05-06T05:38:22.739Z,3.65
2019-05-06T05:40:52.417Z,4.30
2019-05-06T05:46:29.244Z,3.95
2019-05-06T05:49:00.062Z,4.00
2019-05-06T05:51:28.509Z,4.03
2019-05-06T05:53:56.890Z,4.03
2019-05-06T05:56:25.607Z,3.70
2019-05-06T05:58:56.912Z,3.37
2019-05-06T06:01:25.449Z,3.33
2019-05-06T06:03:54.399Z,2.62
2019-05-06T06:06:22.964Z,4.05
2019-05-06T06:08:52.350Z,3.75
2019-05-06T06:11:23.395Z,4.28
2019-05-06T06:13:52.560Z,4.05
2019-05-06T06:16:28.970Z,4.00
2019-05-06T06:19:00.060Z,4.10
2019-05-06T06:21:32.234Z,3.70
2019-05-06T06:24:02.859Z,3.72
2019-05-06T06:26:32.545Z,4.05
2019-05-06T06:29:03.242Z,4.50
2019-05-06T06:31:33.577Z,2.95
2019-05-06T06:34:09.295Z,2.33
2019-05-06T06:36:39.385Z,2.62
2019-05-06T06:39:12.662Z,2.47
2019-05-06T06:41:42.345Z,2.20
2019-05-06T06:44:13.255Z,2.17
2019-05-06T06:46:45.247Z,2.60
2019-05-06T06:49:14.166Z,2.55
2019-05-06T06:51:46.876Z,2.10
2019-05-06T06:54:16.638Z,2.70
2019-05-06T06:57:08.278Z,2.75
2019-05-06T06:59:40.183Z,2.60
2019-05-06T07:02:13.400Z,2.40
2019-05-06T07:04:49.469Z,2.50
2019-05-06T07:07:19.566Z,3.20
2019-05-06T07:09:48.521Z,2.42
2019-05-06T07:12:17.203Z,2.98
2019-05-06T07:14:45.755Z,2.72
2019-05-06T07:17:15.236Z,2.10
2019-05-06T07:19:46.094Z,2.90
2019-05-06T07:22:15.182Z,2.33
2019-05-06T07:24:43.712Z,1.87
2019-05-06T07:27:13.693Z,2.08
2019-05-06T07:29:48.331Z,2.98
2019-05-06T07:32:13.447Z,1.95
2019-05-06T07:34:44.435Z,2.77
2019-05-06T07:37:13.248Z,2.58
2019-05-06T07:39:48.036Z,2.50
2019-05-06T07:42:18.712Z,2.85
2019-05-06T07:44:53.038Z,2.70
2019-05-06T07:47:33.152Z,3.02
2019-05-06T07:50:03.280Z,3.17
2019-05-06T07:52:32.562Z,2.95
2019-05-06T07:55:02.610Z,2.85
2019-05-06T08:00:03.414Z,3.10
2019-05-06T08:02:33.143Z,2.90
2019-05-06T08:05:02.743Z,2.90
2019-05-06T08:07:33.295Z,2.98
2019-05-06T08:10:06.565Z,3.30
2019-05-06T08:12:38.042Z,3.10
2019-05-06T08:15:07.948Z,3.15
2019-05-06T08:20:09.507Z,3.12
2019-05-06T08:22:56.624Z,2.67
2019-05-06T08:25:25.544Z,2.52
2019-05-06T08:27:55.246Z,2.50
2019-05-06T08:30:24.731Z,2.77
2019-05-06T08:32:54.061Z,3.10
2019-05-06T08:35:22.905Z,3.22
2019-05-06T08:37:53.137Z,3.00
2019-05-06T08:40:22.722Z,2.60
2019-05-06T08:42:53.174Z,2.92
2019-05-06T08:45:22.431Z,3.67
2019-05-06T08:47:52.381Z,3.63
2019-05-06T08:52:58.354Z,4.62
2019-05-06T08:55:28.778Z,3.65
2019-05-06T08:57:57.447Z,4.03
2019-05-06T09:00:26.299Z,4.37
2019-05-06T09:02:54.924Z,4.10
2019-05-06T09:05:23.693Z,4.53
2019-05-06T09:07:52.746Z,4.60
2019-05-06T09:10:22.681Z,5.30
2019-05-06T09:12:52.553Z,4.62
2019-05-06T09:15:21.990Z,4.37
2019-05-06T09:17:52.501Z,5.10
2019-05-06T09:22:48.675Z,4.67
2019-05-06T09:25:17.263Z,6.42
2019-05-06T09:27:47.505Z,7.20
2019-05-06T09:30:35.104Z,8.13
2019-05-06T09:33:03.582Z,8.20
2019-05-06T09:35:32.918Z,9.90
2019-05-06T09:38:02.646Z,8.80
2019-05-06T09:40:31.920Z,8.95
2019-05-06T09:43:04.472Z,9.08
2019-05-06T09:45:32.978Z,9.00
2019-05-06T09:48:06.646Z,9.23
2019-05-06T09:50:45.514Z,8.93
2019-05-06T09:53:16.314Z,9.60
2019-05-06T09:56:04.960Z,9.65
2019-05-06T09:58:38.650Z,8.93
2019-05-06T10:01:07.324Z,8.35
2019-05-06T10:03:35.803Z,7.05
2019-05-06T10:06:04.393Z,4.33
2019-05-06T10:08:33.365Z,5.22
2019-05-06T10:11:03.226Z,5.00
2019-05-06T10:16:02.980Z,4.33
2019-05-06T10:18:31.815Z,4.30
2019-05-06T10:21:00.254Z,4.95
2019-05-06T10:23:28.931Z,4.45
2019-05-06T10:25:57.972Z,4.83
2019-05-06T10:28:28.394Z,4.58
2019-05-06T10:30:57.334Z,4.50
2019-05-06T10:33:27.343Z,4.80
2019-05-06T10:38:49.578Z,6.60
2019-05-06T10:41:22.182Z,9.73
2019-05-06T10:44:22.621Z,11.28
2019-05-06T10:46:53.432Z,11.55
2019-05-06T10:49:22.561Z,10.60
2019-05-06T10:52:07.757Z,12.20
2019-05-06T10:54:38.366Z,11.35
2019-05-06T10:57:12.599Z,11.73
2019-05-06T10:59:42.917Z,11.65
2019-05-06T11:02:23.252Z,11.95
2019-05-06T11:04:52.943Z,11.08
2019-05-06T11:07:31.438Z,11.48
2019-05-06T11:09:53.314Z,10.78
2019-05-06T11:12:22.083Z,12.07
2019-05-06T11:14:53.301Z,12.28
2019-05-06T11:17:23.223Z,10.88
2019-05-06T11:19:53.157Z,11.78
2019-05-06T11:24:51.316Z,11.65
2019-05-06T11:27:28.820Z,13.08
2019-05-06T11:29:53.089Z,11.53
2019-05-06T11:32:35.256Z,12.15
2019-05-06T11:35:06.570Z,12.90
2019-05-06T11:37:49.846Z,12.07
2019-05-06T11:40:16.773Z,12.23
2019-05-06T11:42:44.683Z,12.80
2019-05-06T11:45:13.407Z,12.10
2019-05-06T11:47:42.691Z,10.50
2019-05-06T11:50:12.948Z,12.63
2019-05-06T11:52:46.250Z,11.85
2019-05-06T11:55:28.814Z,10.63
2019-05-06T11:57:53.110Z,7.22
2019-05-06T12:00:23.994Z,6.17
2019-05-06T12:02:55.032Z,5.12
2019-05-06T12:05:24.432Z,5.37
2019-05-06T12:08:06.903Z,4.72
2019-05-06T12:10:25.878Z,5.40
2019-05-06T12:12:55.940Z,4.62
2019-05-06T12:17:53.802Z,5.47
2019-05-06T12:20:22.702Z,4.80
2019-05-06T12:22:52.995Z,4.78
2019-05-06T12:25:23.616Z,4.72
2019-05-06T12:27:52.596Z,5.75
2019-05-06T12:30:23.470Z,5.33
2019-05-06T12:32:53.766Z,4.78
2019-05-06T12:35:23.063Z,5.37
2019-05-06T12:37:53.326Z,5.33
2019-05-06T12:40:21.909Z,5.95
2019-05-06T12:43:13.597Z,5.72
2019-05-06T12:45:43.771Z,6.50
2019-05-06T12:48:14.187Z,6.72
2019-05-06T12:50:43.178Z,5.70
2019-05-06T12:53:13.287Z,5.85
2019-05-06T12:55:43.115Z,5.12
2019-05-06T12:58:13.590Z,6.47
2019-05-06T13:00:44.484Z,5.87
2019-05-06T13:03:13.134Z,5.55
2019-05-06T13:05:42.817Z,5.67
2019-05-06T13:08:19.044Z,6.33
2019-05-06T13:10:44.704Z,6.25
2019-05-06T13:13:14.159Z,7.22
2019-05-06T13:15:43.681Z,7.20
2019-05-06T13:18:12.449Z,7.53
2019-05-06T13:20:50.165Z,7.25
2019-05-06T13:23:20.930Z,6.83
2019-05-06T13:25:45.713Z,6.42
2019-05-06T13:28:16.255Z,7.60
2019-05-06T13:30:47.649Z,6.92
2019-05-06T13:33:21.544Z,6.67
2019-05-06T13:35:53.073Z,7.08
2019-05-06T13:38:22.714Z,9.45
2019-05-06T13:40:56.651Z,8.50
2019-05-06T13:43:26.048Z,6.78
2019-05-06T13:45:56.446Z,5.65
2019-05-06T13:48:29.282Z,6.15
2019-05-06T13:51:03.127Z,6.10
2019-05-06T13:53:39.051Z,6.08
2019-05-06T13:56:02.606Z,6.65
2019-05-06T13:58:32.329Z,6.25
2019-05-06T14:01:03.089Z,6.55
2019-05-06T14:03:32.707Z,5.78
2019-05-06T14:06:07.967Z,6.37
2019-05-06T14:08:34.985Z,6.17
2019-05-06T14:11:06.031Z,6.50
2019-05-06T14:13:49.896Z,6.40
2019-05-06T14:16:24.178Z,5.90
2019-05-06T14:18:53.188Z,7.67
2019-05-06T14:21:22.952Z,6.12
2019-05-06T14:23:55.542Z,6.67
2019-05-06T14:26:33.318Z,6.00
2019-05-06T14:29:08.217Z,7.15
2019-05-06T14:31:46.959Z,6.95
2019-05-06T14:34:33.497Z,7.05
2019-05-06T14:37:05.296Z,7.40
2019-05-06T14:39:52.122Z,7.10
2019-05-06T14:42:08.661Z,7.92
2019-05-06T14:44:44.721Z,7.80
2019-05-06T14:47:12.636Z,8.88
2019-05-06T14:49:53.031Z,7.85
2019-05-06T14:54:56.866Z,8.68
2019-05-06T14:57:26.374Z,8.93
2019-05-06T14:59:55.964Z,8.75
2019-05-06T15:02:27.254Z,8.48
2019-05-06T15:04:57.619Z,8.70
2019-05-06T15:07:27.406Z,9.45
2019-05-06T15:10:18.864Z,9.35
2019-05-06T15:12:45.710Z,9.35
2019-05-06T15:15:23.122Z,8.88
2019-05-06T15:17:59.527Z,9.85
2019-05-06T15:20:36.983Z,10.28
2019-05-06T15:23:18.255Z,9.50
2019-05-06T15:25:49.457Z,8.53
2019-05-06T15:28:36.954Z,9.20
2019-05-06T15:31:16.695Z,8.98
2019-05-06T15:33:52.956Z,9.00
2019-05-06T15:36:34.736Z,9.50
2019-05-06T15:39:03.987Z,9.23
2019-05-06T15:41:32.878Z,8.93
2019-05-06T15:44:02.968Z,9.60
2019-05-06T15:46:32.303Z,10.00
2019-05-06T15:49:03.059Z,10.20
2019-05-06T15:51:34.451Z,9.93
2019-05-06T15:54:05.823Z,9.18
2019-05-06T15:56:34.943Z,9.35
2019-05-06T15:59:04.365Z,11.20
2019-05-06T16:01:38.166Z,10.58
2019-05-06T16:04:13.121Z,10.45
2019-05-06T16:06:46.594Z,10.28
2019-05-06T16:09:23.454Z,9.70
2019-05-06T16:12:12.746Z,9.30
2019-05-06T16:14:44.005Z,9.78
2019-05-06T16:17:23.878Z,9.10
2019-05-06T16:19:57.173Z,8.98
2019-05-06T16:22:30.427Z,8.55
2019-05-06T16:25:14.670Z,8.28
2019-05-06T16:27:52.179Z,8.08
2019-05-06T16:30:24.460Z,7.97
2019-05-06T16:32:57.668Z,7.92
2019-05-06T16:35:27.415Z,8.13
2019-05-06T16:38:12.988Z,8.50
2019-05-06T16:40:46.688Z,8.38
2019-05-06T16:43:22.160Z,8.43
2019-05-06T16:45:56.944Z,7.33
2019-05-06T16:48:28.454Z,8.33
2019-05-06T16:50:57.366Z,8.10
2019-05-06T16:53:29.894Z,8.35
2019-05-06T16:56:04.980Z,8.35
2019-05-06T16:58:38.762Z,8.30
2019-05-06T17:01:07.818Z,7.75
2019-05-06T17:03:44.234Z,9.27
2019-05-06T17:06:33.030Z,7.70
2019-05-06T17:09:17.218Z,9.45
2019-05-06T17:11:42.666Z,11.75
2019-05-06T17:14:12.260Z,11.15
2019-05-06T17:16:42.509Z,8.88
2019-05-06T17:19:12.860Z,18.35
2019-05-06T17:21:42.302Z,13.83
2019-05-06T17:24:13.062Z,12.75
2019-05-06T17:26:42.658Z,11.30
2019-05-06T17:31:51.733Z,10.08
2019-05-06T17:34:32.922Z,8.48
2019-05-06T17:37:03.922Z,8.33
2019-05-06T17:39:42.396Z,8.48
2019-05-06T17:42:14.066Z,8.25
2019-05-06T17:44:44.071Z,8.28
2019-05-06T17:49:55.445Z,8.48
2019-05-06T17:52:27.706Z,9.00
2019-05-06T17:54:59.094Z,9.05
2019-05-06T17:57:27.812Z,10.03
2019-05-06T17:59:56.621Z,10.75
2019-05-06T18:02:28.082Z,10.58
2019-05-06T18:05:03.015Z,10.13
2019-05-06T18:07:33.127Z,10.43
2019-05-06T18:12:36.359Z,10.23
2019-05-06T18:15:09.871Z,10.58
2019-05-06T18:17:39.759Z,10.53
2019-05-06T18:20:10.027Z,10.65
2019-05-06T18:22:41.005Z,10.38
2019-05-06T18:25:12.629Z,10.08
2019-05-06T18:27:42.981Z,9.60
2019-05-06T18:30:22.099Z,9.05
2019-05-06T18:32:42.487Z,9.55
2019-05-06T18:35:13.078Z,10.28
2019-05-06T18:37:42.647Z,9.48
2019-05-06T18:40:12.102Z,9.35
2019-05-06T18:42:43.022Z,8.75
2019-05-06T18:45:12.784Z,8.65
2019-05-06T18:47:42.862Z,8.38
2019-05-06T18:52:43.110Z,8.65
2019-05-06T18:55:13.015Z,7.75
2019-05-06T18:57:43.154Z,8.90
2019-05-06T19:00:15.585Z,8.33
2019-05-06T19:02:44.621Z,7.45
2019-05-06T19:05:14.805Z,7.50
2019-05-06T19:07:46.706Z,8.23
2019-05-06T19:10:19.031Z,7.85
2019-05-06T19:12:47.403Z,7.58
2019-05-06T19:15:16.977Z,7.28
2019-05-06T19:17:45.646Z,7.78
2019-05-06T19:20:14.457Z,8.40
2019-05-06T19:22:43.446Z,9.30
2019-05-06T19:25:15.291Z,7.95
2019-05-06T19:27:43.920Z,7.75
2019-05-06T19:30:13.194Z,7.72
2019-05-06T19:32:44.330Z,8.85
2019-05-06T19:35:13.264Z,8.40
2019-05-06T19:37:41.967Z,7.75
2019-05-06T19:40:12.118Z,8.98
2019-05-06T19:42:47.174Z,8.55
2019-05-06T19:45:12.925Z,8.80
2019-05-06T19:47:42.554Z,8.75
2019-05-06T19:52:38.971Z,8.20
2019-05-06T19:55:07.796Z,8.55
2019-05-06T19:57:36.673Z,9.00
2019-05-06T20:00:05.456Z,8.85
2019-05-06T20:02:34.143Z,8.93
2019-05-06T20:05:04.076Z,8.63
2019-05-06T20:10:34.550Z,8.33
2019-05-06T20:13:05.455Z,8.08
2019-05-06T20:15:35.968Z,9.38
2019-05-06T20:18:05.162Z,8.95
2019-05-06T20:20:35.065Z,9.25
2019-05-06T20:23:04.297Z,8.75
2019-05-06T20:25:32.974Z,9.00
2019-05-06T20:28:02.404Z,8.48
2019-05-06T20:30:32.653Z,9.08
2019-05-06T20:33:01.038Z,9.08
2019-05-06T20:35:29.489Z,9.05
2019-05-06T20:37:57.983Z,8.65
2019-05-06T20:40:26.906Z,8.30
2019-05-06T20:42:55.821Z,8.98
2019-05-06T20:45:24.744Z,8.75
2019-05-06T20:47:53.281Z,9.33
2019-05-06T20:50:22.556Z,9.40
2019-05-06T20:52:52.203Z,8.80
2019-05-06T20:55:22.859Z,9.18
2019-05-06T20:57:52.922Z,8.48
2019-05-06T21:00:22.381Z,8.78
2019-05-06T21:02:53.396Z,9.10
2019-05-06T21:05:22.760Z,8.60
2019-05-06T21:10:22.068Z,9.60
2019-05-06T21:12:53.005Z,9.28
2019-05-06T21:15:22.942Z,8.58
2019-05-06T21:17:51.015Z,9.28
2019-05-06T21:20:19.428Z,9.20
2019-05-06T21:22:49.134Z,10.32
2019-05-06T21:25:18.293Z,9.28
2019-05-06T21:27:47.638Z,9.98
2019-05-06T21:30:16.440Z,10.40
2019-05-06T21:32:45.436Z,9.15
2019-05-06T21:35:14.729Z,9.13
2019-05-06T21:37:43.364Z,10.88
2019-05-06T21:40:12.507Z,8.73
2019-05-06T21:42:45.171Z,9.90
2019-05-06T21:45:22.011Z,9.53
2019-05-06T21:47:50.262Z,9.85
2019-05-06T21:50:19.118Z,9.78
2019-05-06T21:52:51.979Z,9.58
2019-05-06T21:55:22.695Z,9.30
2019-05-06T21:57:53.127Z,9.63
2019-05-06T22:00:28.034Z,9.60
2019-05-06T22:03:02.282Z,10.60
2019-05-06T22:05:37.620Z,10.93
2019-05-06T22:08:09.369Z,10.90
2019-05-06T22:10:39.231Z,9.60
2019-05-06T22:13:08.531Z,9.28
2019-05-06T22:15:42.096Z,8.98
2019-05-06T22:18:12.442Z,10.20
2019-05-06T22:20:58.642Z,9.75
2019-05-06T22:23:29.084Z,9.50
2019-05-06T22:26:08.530Z,9.05
2019-05-06T22:28:28.665Z,8.50
2019-05-06T22:30:57.374Z,9.43
2019-05-06T22:33:26.124Z,10.03
2019-05-06T22:35:55.412Z,8.48
2019-05-06T22:38:24.203Z,8.63
2019-05-06T22:40:53.084Z,8.80
2019-05-06T22:43:22.645Z,8.30
2019-05-06T22:45:53.205Z,8.70
2019-05-06T22:48:22.328Z,10.28
2019-05-06T22:50:52.921Z,8.08
2019-05-06T22:53:22.172Z,7.80
2019-05-06T22:55:52.506Z,8.48
2019-05-06T22:58:22.781Z,7.90
2019-05-06T23:00:56.204Z,9.28
2019-05-06T23:03:29.030Z,7.35
2019-05-06T23:05:57.819Z,8.08
2019-05-06T23:08:26.894Z,7.45
2019-05-06T23:10:55.929Z,8.18
2019-05-06T23:13:25.350Z,7.73
2019-05-06T23:15:54.155Z,7.72
2019-05-06T23:18:24.384Z,9.05
2019-05-06T23:20:54.413Z,7.95
2019-05-06T23:26:09.151Z,8.05
2019-05-06T23:28:37.663Z,8.95
2019-05-06T23:31:06.551Z,7.65
2019-05-06T23:33:35.598Z,8.60
2019-05-06T23:36:04.089Z,8.23
2019-05-06T23:39:09.158Z,8.25
2019-05-06T23:42:16.183Z,8.20
2019-05-06T23:45:22.853Z,8.70
2019-05-06T23:48:27.822Z,8.73
2019-05-06T23:51:33.090Z,8.95
2019-05-06T23:54:37.476Z,8.78
2019-05-06T23:57:05.298Z,7.97
2019-05-06T23:59:35.297Z,8.38
